Time;durP1;ratioP1;P1;durP2;ratioP2;P2;SDS_P1;SDS_P2;PMS_P1;PMS_P2;Temp;Humidity;BMP_temperature;BMP_pressure;BME280_temperature;BME280_humidity;BME280_pressure;Samples;Min_cycle;Max_cycle;Signal;HPM_P1;HPM_P2
2021/04/16 00:01:42;;;;;;;3.78;3.58;;;;;;;1.87;61.95;102476.03;4426382;32;20805;-66
2021/04/16 00:04:07;;;;;;;2.70;2.60;;;;;;;1.75;62.29;102470.69;4414255;32;20088;-66
2021/04/16 00:06:33;;;;;;;2.80;2.70;;;;;;;1.72;62.77;102479.25;4404760;32;20087;-67
2021/04/16 00:08:58;;;;;;;3.00;2.90;;;;;;;1.65;62.51;102476.59;4437635;32;20051;-67
2021/04/16 00:11:24;;;;;;;3.10;3.00;;;;;;;1.60;63.03;102479.09;4412685;32;20836;-66
2021/04/16 00:13:50;;;;;;;3.10;3.00;;;;;;;1.57;63.03;102474.75;4413375;32;20258;-67
2021/04/16 00:16:17;;;;;;;2.70;2.60;;;;;;;1.58;63.52;102476.53;4415139;32;20092;-66
2021/04/16 00:18:42;;;;;;;2.80;2.70;;;;;;;1.64;63.12;102474.84;4427666;32;20161;-67
2021/04/16 00:21:08;;;;;;;2.70;2.60;;;;;;;1.65;63.63;102474.00;4419611;32;20582;-66
2021/04/16 00:23:33;;;;;;;2.78;2.67;;;;;;;1.67;63.38;102472.31;4415430;32;20113;-67
2021/04/16 00:25:59;;;;;;;2.70;2.60;;;;;;;1.65;63.01;102472.28;4433977;32;20064;-67
2021/04/16 00:28:25;;;;;;;2.65;2.55;;;;;;;1.61;62.66;102467.06;4420619;32;20581;-68
2021/04/16 00:30:54;;;;;;;3.15;3.05;;;;;;;1.54;63.06;102472.16;4424806;32;20083;-67
2021/04/16 00:33:19;;;;;;;2.60;2.50;;;;;;;1.49;63.69;102466.03;4420131;32;20137;-68
2021/04/16 00:35:45;;;;;;;3.08;2.97;;;;;;;1.14;63.29;102414.69;4418933;32;20095;-68
2021/04/16 00:38:10;;;;;;;2.90;2.80;;;;;;;1.32;64.13;102450.28;4432114;32;20075;-67
2021/04/16 00:41:02;;;;;;;2.60;2.50;;;;;;;1.34;64.31;102460.63;4420133;32;20161;-66
2021/04/16 00:43:29;;;;;;;2.75;2.65;;;;;;;1.30;64.85;102456.25;4435678;32;20075;-68
2021/04/16 00:46:04;;;;;;;2.97;2.87;;;;;;;1.28;64.46;102455.38;4422479;32;20084;-67
2021/04/16 00:48:32;;;;;;;2.65;2.55;;;;;;;1.26;65.28;102455.34;4426431;32;20075;-67
2021/04/16 00:50:58;;;;;;;2.60;2.50;;;;;;;1.24;65.03;102449.28;4415246;32;20086;-68
2021/04/16 00:53:23;;;;;;;2.70;2.60;;;;;;;1.24;64.76;102451.00;4424993;32;20486;-67
2021/04/16 00:55:49;;;;;;;2.70;2.60;;;;;;;1.22;65.68;102447.53;4415395;32;20186;-70
2021/04/16 00:58:15;;;;;;;2.72;2.62;;;;;;;1.22;65.86;102442.34;4415072;32;20095;-69
2021/04/16 01:00:42;;;;;;;3.78;3.58;;;;;;;1.24;66.23;102448.41;4421850;32;20088;-69
2021/04/16 01:03:07;;;;;;;2.55;2.45;;;;;;;1.26;66.56;102449.31;4425862;32;20661;-70
2021/04/16 01:05:32;;;;;;;2.80;2.70;;;;;;;1.34;66.16;102450.28;4423594;32;20082;-69
2021/04/16 01:07:58;;;;;;;2.65;2.55;;;;;;;1.41;66.02;102448.66;4417235;32;20063;-69
2021/04/16 01:10:23;;;;;;;2.40;2.30;;;;;;;1.52;66.80;102453.13;4411803;32;20517;-69
2021/04/16 01:12:49;;;;;;;2.87;2.78;;;;;;;1.59;65.51;102435.97;4407313;32;20061;-69
2021/04/16 01:15:30;;;;;;;2.72;2.62;;;;;;;1.65;65.46;102442.97;4413761;32;20084;-70
2021/04/16 01:18:14;;;;;;;2.42;2.33;;;;;;;1.64;65.42;102433.44;4404810;32;20763;-69
2021/04/16 01:20:41;;;;;;;2.50;2.40;;;;;;;1.59;65.26;102439.44;4415868;32;20494;-69
2021/04/16 01:23:10;;;;;;;2.40;2.30;;;;;;;1.25;65.96;102394.12;4431297;32;20064;-69
2021/04/16 01:25:36;;;;;;;2.58;2.47;;;;;;;1.50;65.93;102447.06;4444727;32;20126;-68
2021/04/16 01:28:01;;;;;;;2.55;2.45;;;;;;;1.46;65.55;102442.69;4418077;32;20126;-68
2021/04/16 01:30:28;;;;;;;2.40;2.30;;;;;;;1.34;66.55;102416.66;4416424;32;20068;-68
2021/04/16 01:32:54;;;;;;;2.50;2.40;;;;;;;1.46;66.05;102434.06;4408411;32;20200;-67
2021/04/16 01:35:23;;;;;;;2.97;2.87;;;;;;;1.46;66.22;102440.09;4414448;32;20067;-67
2021/04/16 01:37:48;;;;;;;3.03;2.92;;;;;;;1.45;66.09;102438.38;4415857;32;20068;-67
2021/04/16 01:40:13;;;;;;;3.15;3.05;;;;;;;1.46;67.11;102434.91;4416488;32;23203;-67
2021/04/16 01:42:39;;;;;;;2.67;2.58;;;;;;;1.51;66.94;102432.41;4421406;32;20187;-67
2021/04/16 01:45:07;;;;;;;2.75;2.65;;;;;;;1.49;65.90;102428.94;4417517;32;20092;-67
2021/04/16 01:47:34;;;;;;;6.28;3.70;;;;;;;1.54;66.37;102441.09;4406665;32;20065;-67
2021/04/16 01:49:59;;;;;;;2.45;2.35;;;;;;;1.35;66.39;102403.75;4420532;32;20684;-67
2021/04/16 01:52:32;;;;;;;2.50;2.40;;;;;;;1.48;65.69;102429.78;4417596;32;20305;-67
2021/04/16 01:54:57;;;;;;;;;;;;;;;1.45;66.53;102429.75;4421218;32;20072;-68
2021/04/16 01:57:30;;;;;;;2.50;2.40;;;;;;;1.41;66.25;102426.25;4437035;32;20164;-68
2021/04/16 01:59:56;;;;;;;2.67;2.58;;;;;;;1.44;66.89;102436.63;4419580;32;20077;-68
2021/04/16 02:02:23;;;;;;;2.50;2.40;;;;;;;1.37;66.46;102411.53;4415869;32;20170;-66
2021/04/16 02:04:49;;;;;;;2.70;2.60;;;;;;;1.44;66.78;102430.59;4432277;32;21062;-67
2021/04/16 02:07:14;;;;;;;2.53;2.42;;;;;;;1.38;67.90;102427.09;4419208;32;20388;-66
2021/04/16 02:09:40;;;;;;;3.30;3.10;;;;;;;1.47;67.67;102435.81;4414011;32;20065;-67
2021/04/16 02:12:06;;;;;;;3.35;3.25;;;;;;;1.48;67.99;102432.38;4419762;32;20060;-67
2021/04/16 02:14:32;;;;;;;2.58;2.47;;;;;;;1.51;67.41;102424.66;4418213;32;20169;-67
2021/04/16 02:17:03;;;;;;;2.58;2.47;;;;;;;1.52;67.29;102427.25;4421153;32;20500;-66
2021/04/16 02:19:28;;;;;;;2.50;2.40;;;;;;;1.33;67.17;102387.34;4429781;32;20060;-66
2021/04/16 02:21:54;;;;;;;2.70;2.60;;;;;;;1.56;67.77;102426.47;4416395;32;20059;-67
2021/04/16 02:24:19;;;;;;;2.45;2.35;;;;;;;1.58;68.19;102422.19;4417310;32;20064;-66
2021/04/16 02:26:45;;;;;;;2.78;2.67;;;;;;;1.61;68.07;102428.25;4418976;32;20068;-67
2021/04/16 02:29:11;;;;;;;2.80;2.70;;;;;;;1.64;67.85;102428.25;4415645;32;20093;-68
2021/04/16 02:31:42;;;;;;;2.50;2.40;;;;;;;1.64;67.81;102420.50;4419224;32;20092;-68
2021/04/16 02:34:08;;;;;;;2.70;2.60;;;;;;;1.74;68.12;102427.53;4411940;32;20072;-67
2021/04/16 02:36:33;;;;;;;2.58;2.47;;;;;;;1.78;67.37;102419.84;4421898;32;20781;-65
2021/04/16 02:38:59;;;;;;;2.80;2.70;;;;;;;1.82;67.14;102412.09;4412757;32;20150;-68
2021/04/16 02:41:24;;;;;;;2.80;2.70;;;;;;;1.90;68.26;102416.50;4419035;32;20078;-66
2021/04/16 02:43:49;;;;;;;3.47;3.37;;;;;;;1.62;68.29;102368.72;4411886;32;20077;-65
2021/04/16 02:46:15;;;;;;;3.30;3.10;;;;;;;1.79;67.40;102392.22;4429294;32;20190;-66
2021/04/16 02:48:40;;;;;;;2.65;2.55;;;;;;;0.78;67.68;102201.38;4436565;32;20060;-66
2021/04/16 02:51:05;;;;;;;2.45;2.35;;;;;;;1.98;66.96;102401.94;4413712;32;20148;-66
2021/04/16 02:53:31;;;;;;;2.47;2.37;;;;;;;1.92;66.87;102383.72;4428498;32;20125;-66
2021/04/16 02:55:56;;;;;;;2.50;2.40;;;;;;;2.18;67.91;102421.97;4416144;32;20240;-65
2021/04/16 02:58:21;;;;;;;2.70;2.60;;;;;;;2.21;67.32;102422.03;4416065;32;20104;-66
2021/04/16 03:00:47;;;;;;;2.70;2.60;;;;;;;2.18;67.70;102404.72;4413243;32;20985;-67
2021/04/16 03:03:12;;;;;;;2.67;2.58;;;;;;;2.25;67.08;102418.59;4414275;32;20112;-67
2021/04/16 03:05:38;;;;;;;2.55;2.45;;;;;;;2.24;67.14;102409.09;4412127;32;20063;-66
2021/04/16 03:08:03;;;;;;;2.45;2.35;;;;;;;2.07;67.18;102380.44;4420377;32;20113;-67
2021/04/16 03:10:34;;;;;;;2.70;2.60;;;;;;;2.36;67.83;102416.13;4415331;32;20585;-65
2021/04/16 03:12:59;;;;;;;2.92;2.80;;;;;;;2.38;66.67;102424.75;4429307;32;20060;-68
2021/04/16 03:15:25;;;;;;;2.37;2.28;;;;;;;2.39;68.02;102423.94;4420669;32;20257;-67
2021/04/16 03:17:50;;;;;;;2.90;2.80;;;;;;;2.39;67.28;102422.19;4418480;32;20067;-68
2021/04/16 03:20:16;;;;;;;2.55;2.45;;;;;;;2.39;67.53;102424.78;4418038;32;20059;-68
2021/04/16 03:22:41;;;;;;;2.80;2.70;;;;;;;2.39;67.75;102429.97;4412560;32;20072;-68
2021/04/16 03:25:09;;;;;;;2.60;2.50;;;;;;;2.39;68.05;102431.69;4420147;32;20605;-66
2021/04/16 03:27:34;;;;;;;2.92;2.80;;;;;;;2.38;67.46;102420.44;4416842;32;20149;-68
2021/04/16 03:30:00;;;;;;;2.67;2.58;;;;;;;2.37;68.46;102425.63;4431173;32;20083;-67
2021/04/16 03:32:25;;;;;;;2.55;2.45;;;;;;;2.39;68.49;102429.97;4417621;32;20076;-69
2021/04/16 03:34:51;;;;;;;2.70;2.60;;;;;;;2.42;68.70;102423.94;4416984;32;20593;-66
2021/04/16 03:37:16;;;;;;;2.83;2.72;;;;;;;2.46;68.83;102423.13;4416765;32;20532;-68
2021/04/16 03:39:41;;;;;;;2.70;2.60;;;;;;;2.52;68.58;102427.50;4418188;32;20071;-64
2021/04/16 03:42:07;;;;;;;3.10;3.00;;;;;;;2.10;68.16;102353.69;4424262;32;20335;-68
2021/04/16 03:44:32;;;;;;;3.00;2.90;;;;;;;2.58;68.01;102420.63;4412769;32;20461;-66
2021/04/16 03:46:58;;;;;;;2.50;2.40;;;;;;;2.60;67.81;102428.44;4417819;32;20088;-66
2021/04/16 03:49:23;;;;;;;2.78;2.67;;;;;;;2.52;68.00;102396.37;4418549;32;20661;-66
2021/04/16 03:52:06;;;;;;;2.70;2.60;;;;;;;2.62;68.18;102420.66;4416832;32;20071;-65
2021/04/16 03:54:33;;;;;;;2.50;2.40;;;;;;;2.62;68.67;102418.06;4414061;32;20421;-66
2021/04/16 03:56:59;;;;;;;2.90;2.80;;;;;;;2.62;68.50;102413.75;4418079;32;20123;-68
2021/04/16 03:59:24;;;;;;;2.83;2.72;;;;;;;2.62;68.73;102416.34;4409337;32;20468;-66
2021/04/16 04:01:50;;;;;;;2.62;2.53;;;;;;;2.65;68.49;102410.34;4419149;32;20064;-65
2021/04/16 04:04:16;;;;;;;2.97;2.87;;;;;;;2.60;69.65;102425.84;4413094;32;20106;-67
2021/04/16 04:06:42;;;;;;;3.00;2.90;;;;;;;2.59;70.59;102434.47;4418389;32;20079;-65
2021/04/16 04:09:07;;;;;;;5.32;2.83;;;;;;;2.44;73.28;102437.78;4421203;32;20312;-67
2021/04/16 04:11:32;;;;;;;3.00;2.90;;;;;;;2.42;72.49;102436.91;4431515;32;20084;-67
2021/04/16 04:13:59;;;;;;;2.90;2.80;;;;;;;2.31;73.01;102417.81;4423918;32;20130;-67
2021/04/16 04:16:25;;;;;;;2.50;2.40;;;;;;;2.47;71.95;102437.81;4413983;32;20207;-67
2021/04/16 04:18:50;;;;;;;2.70;2.60;;;;;;;2.46;71.94;102423.13;4421034;32;20977;-67
2021/04/16 04:21:15;;;;;;;2.60;2.50;;;;;;;2.49;72.22;102422.28;4416985;32;20072;-66
2021/04/16 04:23:41;;;;;;;2.70;2.60;;;;;;;2.42;71.83;102428.25;4415157;32;20083;-65
2021/04/16 04:26:06;;;;;;;2.87;2.78;;;;;;;2.44;71.73;102432.59;4414363;32;20115;-65
2021/04/16 04:28:32;;;;;;;2.50;2.40;;;;;;;2.37;71.83;102412.69;4414569;32;20083;-68
2021/04/16 04:30:57;;;;;;;2.87;2.78;;;;;;;2.46;71.61;102428.28;4416219;32;20455;-66
2021/04/16 04:33:23;;;;;;;2.60;2.50;;;;;;;2.49;72.04;102427.47;4415742;32;20079;-65
2021/04/16 04:35:48;;;;;;;2.75;2.65;;;;;;;2.48;71.87;102420.53;4420415;32;20282;-66
2021/04/16 04:38:14;;;;;;;2.55;2.45;;;;;;;2.47;71.59;102418.81;4420745;32;20067;-66
2021/04/16 04:40:39;;;;;;;3.00;2.90;;;;;;;2.10;72.10;102357.16;4428001;32;20076;-64
2021/04/16 04:43:04;;;;;;;3.25;3.05;;;;;;;2.51;70.69;102407.62;4414803;32;20474;-65
2021/04/16 04:45:30;;;;;;;2.70;2.60;;;;;;;2.53;70.88;102406.78;4442707;32;20076;-64
2021/04/16 04:47:55;;;;;;;2.80;2.70;;;;;;;2.46;71.22;102401.53;4426340;32;20084;-64
2021/04/16 04:50:22;;;;;;;2.50;2.40;;;;;;;2.47;71.19;102404.13;4416428;32;20057;-63
2021/04/16 04:52:47;;;;;;;2.70;2.60;;;;;;;2.39;72.06;102403.19;4428974;32;20068;-64
2021/04/16 04:55:15;;;;;;;2.80;2.70;;;;;;;2.31;72.85;102405.72;4422145;32;20169;-65
2021/04/16 04:57:41;;;;;;;2.58;2.47;;;;;;;2.23;72.94;102422.91;4420955;32;20079;-64
2021/04/16 05:00:07;;;;;;;2.60;2.50;;;;;;;1.90;73.92;102395.78;4431786;32;20586;-65
2021/04/16 05:02:33;;;;;;;2.60;2.50;;;;;;;2.07;75.56;102437.41;4419659;32;20214;-66
2021/04/16 05:04:58;;;;;;;2.60;2.50;;;;;;;2.05;75.67;102440.84;4428593;32;20114;-66
2021/04/16 05:07:25;;;;;;;2.50;2.40;;;;;;;2.02;76.00;102439.06;4419568;32;20545;-66
2021/04/16 05:09:50;;;;;;;2.78;2.67;;;;;;;2.06;75.52;102443.44;4436158;32;20083;-67
2021/04/16 05:12:15;;;;;;;2.47;2.37;;;;;;;2.12;75.83;102442.63;4416265;32;20550;-66
2021/04/16 05:14:41;;;;;;;3.45;3.25;;;;;;;2.17;74.72;102438.38;4412414;32;20129;-66
2021/04/16 05:17:06;;;;;;;2.85;2.75;;;;;;;2.22;74.13;102439.28;4415508;32;20537;-66
2021/04/16 05:19:32;;;;;;;2.60;2.50;;;;;;;2.24;74.52;102440.16;4417985;32;20146;-66
2021/04/16 05:21:59;;;;;;;3.05;2.95;;;;;;;2.33;73.75;102468.78;4422340;32;20908;-66
2021/04/16 05:24:24;;;;;;;2.30;2.20;;;;;;;2.43;73.37;102451.59;4415195;32;20084;-65
2021/04/16 05:26:49;;;;;;;2.40;2.30;;;;;;;2.50;73.11;102440.44;4420103;32;20290;-64
2021/04/16 05:29:15;;;;;;;2.78;2.67;;;;;;;2.56;73.07;102442.22;4415327;32;20102;-67
2021/04/16 05:31:40;;;;;;;2.80;2.70;;;;;;;2.65;73.13;102441.44;4417492;32;20499;-64
2021/04/16 05:34:05;;;;;;;2.75;2.65;;;;;;;2.75;72.24;102441.53;4416325;32;20072;-65
2021/04/16 05:36:31;;;;;;;2.75;2.65;;;;;;;2.84;72.14;102445.03;4422743;32;20680;-65
2021/04/16 05:38:56;;;;;;;2.80;2.70;;;;;;;2.86;72.29;102451.13;4421831;32;20060;-65
2021/04/16 05:41:22;;;;;;;2.60;2.50;;;;;;;3.03;72.34;102457.31;4418319;32;20095;-65
2021/04/16 05:43:47;;;;;;;2.80;2.70;;;;;;;3.08;71.05;102445.22;4417931;32;20087;-65
2021/04/16 05:46:13;;;;;;;2.90;2.80;;;;;;;3.12;70.40;102444.38;4419598;32;20535;-64
2021/04/16 05:48:38;;;;;;;2.60;2.50;;;;;;;3.08;70.77;102449.56;4418928;32;20662;-65
2021/04/16 05:51:04;;;;;;;2.80;2.70;;;;;;;3.32;70.56;102444.50;4431754;32;20080;-64
2021/04/16 05:53:29;;;;;;;2.90;2.80;;;;;;;3.49;69.49;102442.03;4414304;32;20099;-64
2021/04/16 05:55:54;;;;;;;2.72;2.62;;;;;;;3.54;69.81;102439.44;4443436;32;20095;-64
2021/04/16 05:58:20;;;;;;;2.78;2.67;;;;;;;3.54;69.26;102435.12;4419318;32;20573;-65
2021/04/16 06:00:45;;;;;;;2.87;2.78;;;;;;;3.57;68.60;102429.09;4408363;32;20069;-65
2021/04/16 06:03:10;;;;;;;3.33;3.12;;;;;;;3.86;68.43;102425.75;4410046;32;20087;-64
2021/04/16 06:05:36;;;;;;;2.72;2.62;;;;;;;4.13;66.72;102431.03;4423322;32;20102;-63
2021/04/16 06:08:02;;;;;;;2.90;2.80;;;;;;;4.27;66.50;102437.97;4419521;32;20082;-65
2021/04/16 06:10:27;;;;;;;2.87;2.78;;;;;;;4.51;65.97;102438.03;4411889;32;20064;-67
2021/04/16 06:12:52;;;;;;;3.17;2.97;;;;;;;4.46;65.26;102420.69;4414692;32;20111;-67
2021/04/16 06:15:21;;;;;;;2.85;2.75;;;;;;;4.65;64.94;102434.56;4422503;32;20202;-67
2021/04/16 06:17:46;;;;;;;2.90;2.80;;;;;;;4.73;65.78;102436.31;4416919;32;20100;-64
2021/04/16 06:20:12;;;;;;;2.90;2.80;;;;;;;4.66;66.17;102426.75;4411781;32;20123;-65
2021/04/16 06:22:38;;;;;;;3.00;2.90;;;;;;;4.82;65.99;102434.56;4417119;32;20092;-67
2021/04/16 06:25:05;;;;;;;3.33;3.17;;;;;;;4.92;65.72;102442.34;4428689;32;20141;-63
2021/04/16 06:27:30;;;;;;;3.12;3.03;;;;;;;5.14;65.83;102435.41;4418799;32;20089;-67
2021/04/16 06:29:55;;;;;;;3.42;3.33;;;;;;;5.27;65.35;102433.66;4416388;32;20080;-65
2021/04/16 06:32:21;;;;;;;3.15;3.05;;;;;;;5.20;65.07;102424.97;4423876;32;20053;-65
2021/04/16 06:34:47;;;;;;;3.10;3.00;;;;;;;5.53;63.76;102436.19;4422056;32;20883;-64
2021/04/16 06:37:12;;;;;;;3.10;3.00;;;;;;;5.54;64.22;102424.03;4417954;32;20114;-65
2021/04/16 06:39:38;;;;;;;2.92;2.83;;;;;;;5.57;64.06;102424.88;4418684;32;20130;-65
2021/04/16 06:42:06;;;;;;;2.97;2.87;;;;;;;5.72;64.03;102426.56;4412590;32;20691;-65
2021/04/16 06:44:33;;;;;;;3.10;3.00;;;;;;;5.75;61.48;102423.94;4414448;32;20083;-64
2021/04/16 06:47:09;;;;;;;3.10;3.00;;;;;;;5.83;61.28;102423.03;4426619;32;20096;-64
2021/04/16 06:49:35;;;;;;;3.08;2.97;;;;;;;5.81;60.73;102420.44;4419954;32;20089;-65
2021/04/16 06:52:15;;;;;;;3.12;3.03;;;;;;;5.89;59.95;102420.37;4428134;32;20206;-64
2021/04/16 06:54:51;;;;;;;3.10;3.00;;;;;;;5.73;60.14;102430.00;4416935;32;20699;-65
2021/04/16 06:57:38;;;;;;;2.97;2.87;;;;;;;5.74;59.72;102427.41;4440160;32;20080;-65
2021/04/16 07:00:13;;;;;;;3.08;2.97;;;;;;;5.51;61.10;102411.00;4400746;32;20064;-64
2021/04/16 07:02:48;;;;;;;2.92;2.83;;;;;;;5.65;60.30;102408.34;4422101;32;20087;-64
2021/04/16 07:05:22;;;;;;;3.20;3.10;;;;;;;5.95;60.60;102433.41;4427142;32;20213;-64
2021/04/16 07:07:48;;;;;;;3.40;3.30;;;;;;;5.96;58.41;102433.41;4398883;32;20176;-64
2021/04/16 07:10:21;;;;;;;4.03;3.83;;;;;;;5.93;59.49;102435.12;4396029;32;20104;-64
2021/04/16 07:12:46;;;;;;;;;;;;;;;5.86;59.81;102434.31;4421308;32;20724;-65
2021/04/16 07:15:42;;;;;;;2.80;2.70;;;;;;;5.78;59.13;102403.06;4423921;32;20045;-67
2021/04/16 07:18:07;;;;;;;3.12;3.03;;;;;;;5.80;57.41;102439.56;4431399;32;20611;-65
2021/04/16 07:20:33;;;;;;;3.00;2.90;;;;;;;5.90;59.61;102437.78;4415519;32;20106;-65
2021/04/16 07:22:58;;;;;;;4.22;3.92;;;;;;;6.01;57.55;102438.59;4429034;32;20149;-66
2021/04/16 07:25:28;;;;;;;3.45;3.33;;;;;;;6.57;57.33;102444.34;4420909;32;20079;-66
2021/04/16 07:27:57;;;;;;;3.10;3.00;;;;;;;6.79;55.30;102439.81;4423511;32;20092;-66
2021/04/16 07:30:33;;;;;;;3.10;3.00;;;;;;;6.78;54.96;102436.34;4398568;32;20083;-66
2021/04/16 07:33:01;;;;;;;3.50;3.40;;;;;;;6.94;54.05;102437.09;4433618;32;20065;-67
2021/04/16 07:35:32;;;;;;;3.50;3.40;;;;;;;6.86;53.45;102432.81;4424778;32;20097;-68
2021/04/16 07:38:03;;;;;;;3.40;3.30;;;;;;;6.68;56.58;102436.44;4410909;32;20094;-69
2021/04/16 07:40:51;;;;;;;3.37;3.28;;;;;;;6.50;55.76;102434.84;4409493;32;20068;-68
2021/04/16 07:43:41;;;;;;;3.20;3.10;;;;;;;6.43;57.13;102434.00;4410949;32;20068;-69
2021/04/16 07:46:06;;;;;;;4.12;3.92;;;;;;;6.33;55.79;102429.72;4416933;32;20076;-65
2021/04/16 07:48:33;;;;;;;3.20;3.10;;;;;;;6.35;56.64;102439.31;4402038;32;20572;-64
2021/04/16 07:51:00;;;;;;;3.60;3.40;;;;;;;5.43;55.33;102248.72;4401713;32;20083;-67
2021/04/16 07:53:26;;;;;;;3.20;3.10;;;;;;;6.69;54.13;102432.94;4410574;32;20598;-65
2021/04/16 07:56:14;;;;;;;3.28;3.17;;;;;;;6.79;53.49;102417.22;4407996;32;20098;-66
2021/04/16 07:58:40;;;;;;;3.10;3.00;;;;;;;7.12;54.39;102423.00;4429519;32;20939;-64
2021/04/16 08:01:30;;;;;;;3.85;3.65;;;;;;;7.31;52.43;102418.44;4414234;32;20089;-63
2021/04/16 08:04:51;;;;;;;3.50;3.40;;;;;;;7.23;52.59;102422.00;4411174;32;20077;-66
2021/04/16 08:07:18;;;;;;;3.15;3.05;;;;;;;7.46;52.92;102419.16;4420248;32;20084;-65
2021/04/16 08:09:44;;;;;;;3.55;3.35;;;;;;;7.42;52.48;102415.72;4395482;32;20963;-67
2021/04/16 08:12:13;;;;;;;3.03;2.92;;;;;;;7.44;51.97;102420.91;4412310;32;20084;-67
2021/04/16 08:14:40;;;;;;;3.30;3.20;;;;;;;7.44;49.78;102427.00;4400625;32;20709;-67
2021/04/16 08:17:27;;;;;;;3.10;3.00;;;;;;;7.58;51.27;102425.09;4425450;32;20159;-67
2021/04/16 08:19:53;;;;;;;3.50;3.40;;;;;;;7.78;52.23;102418.78;4400924;32;20084;-68
2021/04/16 08:22:31;;;;;;;3.40;3.30;;;;;;;7.71;52.84;102427.56;4417789;32;20098;-68
2021/04/16 08:25:01;;;;;;;3.62;3.53;;;;;;;7.70;51.18;102410.16;4410662;32;20072;-68
2021/04/16 08:28:07;;;;;;;3.20;3.10;;;;;;;7.76;49.79;102417.94;4443164;32;20138;-65
2021/04/16 08:31:11;;;;;;;4.25;4.05;;;;;;;8.03;50.17;102416.69;4423931;32;20664;-68
2021/04/16 08:33:48;;;;;;;3.15;3.05;;;;;;;8.15;51.24;102416.50;4396403;32;20105;-68
2021/04/16 08:36:13;;;;;;;3.20;3.10;;;;;;;8.24;51.04;102420.75;4380037;32;20505;-65
2021/04/16 08:38:44;;;;;;;4.03;3.83;;;;;;;8.20;49.49;102419.06;4412690;32;20153;-65
2021/04/16 08:41:10;;;;;;;3.20;3.10;;;;;;;8.39;47.99;102410.03;4406802;32;20068;-65
2021/04/16 08:43:41;;;;;;;3.70;3.50;;;;;;;8.52;49.86;102404.62;4407805;32;20129;-64
2021/04/16 08:46:28;;;;;;;3.90;3.70;;;;;;;8.32;49.88;102416.25;4405265;32;20103;-66
2021/04/16 08:48:55;;;;;;;3.40;3.30;;;;;;;8.21;49.61;102401.62;4420014;32;20189;-65
2021/04/16 08:51:45;;;;;;;3.50;3.40;;;;;;;8.30;49.03;102409.31;4408194;32;20617;-66
2021/04/16 08:54:18;;;;;;;3.40;3.30;;;;;;;8.54;49.55;102413.34;4403164;32;20149;-68
2021/04/16 08:56:59;;;;;;;3.50;3.40;;;;;;;8.54;48.26;102413.34;4402742;32;20107;-66
2021/04/16 08:59:26;;;;;;;3.45;3.35;;;;;;;8.72;48.44;102412.16;4427703;32;20083;-67
2021/04/16 09:02:04;;;;;;;3.45;3.35;;;;;;;8.68;49.20;102415.72;4402269;32;20190;-66
2021/04/16 09:04:32;;;;;;;3.40;3.30;;;;;;;8.76;49.13;102412.09;4401549;32;20690;-67
2021/04/16 09:06:59;;;;;;;3.50;3.40;;;;;;;8.54;46.53;102379.34;4423153;32;20061;-63
2021/04/16 09:09:46;;;;;;;3.50;3.40;;;;;;;9.10;46.88;102405.38;4413768;32;20068;-67
2021/04/16 09:12:40;;;;;;;3.40;3.30;;;;;;;8.96;47.21;102408.25;4425588;32;20082;-65
2021/04/16 09:15:06;;;;;;;3.50;3.40;;;;;;;9.02;46.32;102413.41;4426682;32;20091;-65
2021/04/16 09:17:50;;;;;;;3.45;3.35;;;;;;;9.19;45.04;102403.47;4410048;32;20076;-65
2021/04/16 09:20:16;;;;;;;3.28;3.17;;;;;;;9.11;44.74;102410.59;4437589;32;20080;-66
2021/04/16 09:22:42;;;;;;;3.47;3.37;;;;;;;9.50;46.14;102408.12;4399659;32;20099;-66
2021/04/16 09:25:30;;;;;;;3.40;3.30;;;;;;;9.24;46.52;102407.75;4404468;32;20084;-65
2021/04/16 09:28:15;;;;;;;3.50;3.40;;;;;;;9.37;45.10;102404.84;4419519;32;20077;-65
2021/04/16 09:30:41;;;;;;;3.60;3.40;;;;;;;9.38;46.24;102411.84;4413873;32;20081;-67
2021/04/16 09:33:25;;;;;;;3.37;3.28;;;;;;;9.36;46.52;102403.16;4397960;32;20239;-65
2021/04/16 09:36:08;;;;;;;3.40;3.30;;;;;;;9.53;46.21;102401.94;4406669;32;20069;-65
2021/04/16 09:38:51;;;;;;;3.47;3.37;;;;;;;9.29;42.75;102392.81;4415227;32;20574;-66
2021/04/16 09:41:20;;;;;;;3.55;3.45;;;;;;;9.43;42.99;102392.53;4433675;32;20125;-66
2021/04/16 09:43:53;;;;;;;3.55;3.45;;;;;;;9.50;44.27;102402.00;4440835;32;20250;-66
2021/04/16 09:46:31;;;;;;;3.97;3.78;;;;;;;9.58;43.49;102390.47;4415530;32;20091;-70
2021/04/16 09:48:58;;;;;;;3.60;3.50;;;;;;;9.48;45.24;102390.69;4438206;32;20072;-70
2021/04/16 09:51:32;;;;;;;3.55;3.45;;;;;;;9.41;44.70;102394.34;4418550;32;20080;-69
2021/04/16 09:54:13;;;;;;;3.70;3.60;;;;;;;9.34;43.42;102399.69;4436847;32;20082;-68
2021/04/16 09:56:58;;;;;;;3.47;3.37;;;;;;;6.84;44.26;101928.34;4438574;32;20072;-68
2021/04/16 09:59:40;;;;;;;3.40;3.30;;;;;;;9.37;43.60;102383.03;4428102;32;20704;-70
2021/04/16 10:02:16;;;;;;;3.35;3.25;;;;;;;9.46;43.06;102382.87;4421562;32;20073;-70
2021/04/16 10:05:09;;;;;;;3.40;3.30;;;;;;;9.66;42.38;102364.09;4445380;32;20554;-68
2021/04/16 10:07:52;;;;;;;5.00;4.65;;;;;;;9.76;40.80;102385.72;4419946;32;20092;-68
2021/04/16 10:10:34;;;;;;;3.60;3.47;;;;;;;9.76;41.32;102393.56;4429156;32;20206;-68
2021/04/16 10:13:24;;;;;;;4.00;3.80;;;;;;;9.46;42.14;102361.91;4428888;32;20103;-71
2021/04/16 10:15:51;;;;;;;4.32;4.03;;;;;;;9.54;42.78;102373.09;4426596;32;20623;-70
2021/04/16 10:18:17;;;;;;;3.53;3.40;;;;;;;9.53;41.55;102376.59;4439021;32;20072;-68
2021/04/16 10:21:11;;;;;;;3.50;3.40;;;;;;;9.67;41.58;102372.81;4441456;32;20695;-70
2021/04/16 10:23:49;;;;;;;3.72;3.60;;;;;;;9.46;43.62;102366.25;4423470;32;20223;-71
2021/04/16 10:31:27;;;;;;;4.25;4.05;;;;;;;9.91;41.20;102348.66;4436698;32;20932;-68
2021/04/16 12:39:17;;;;;;;4.68;4.47;;;;;;;11.98;32.55;102238.75;4412244;32;20075;-70
2021/04/16 12:41:48;;;;;;;4.12;3.92;;;;;;;11.61;32.75;102268.00;4405548;32;20083;-70
2021/04/16 12:44:31;;;;;;;4.40;4.20;;;;;;;11.91;35.28;102248.62;4400625;32;20072;-67
2021/04/16 12:47:00;;;;;;;3.78;3.67;;;;;;;11.80;31.40;102242.81;4428264;32;20086;-67
2021/04/16 12:49:26;;;;;;;4.57;4.37;;;;;;;11.43;32.98;102215.06;4413890;32;20060;-69
2021/04/16 12:51:52;;;;;;;3.70;3.60;;;;;;;12.32;32.07;102241.09;4409834;32;20183;-68
2021/04/16 12:54:17;;;;;;;3.60;3.50;;;;;;;11.85;30.82;102238.28;4409939;32;20090;-68
2021/04/16 12:56:43;;;;;;;3.90;3.78;;;;;;;12.27;33.58;102229.03;4405055;32;20163;-68
2021/04/16 12:59:16;;;;;;;3.90;3.72;;;;;;;12.23;32.66;102245.81;4413251;32;20483;-66
2021/04/16 13:01:43;;;;;;;3.70;3.55;;;;;;;12.06;31.84;102246.41;4417859;32;20962;-69
2021/04/16 13:04:08;;;;;;;3.95;3.80;;;;;;;12.52;32.74;102243.03;4415558;32;20657;-66
2021/04/16 13:06:42;;;;;;;4.05;3.85;;;;;;;12.35;33.59;102243.63;4409092;32;20088;-68
2021/04/16 13:09:08;;;;;;;3.75;3.65;;;;;;;12.00;31.25;102157.12;4399031;32;20080;-66
2021/04/16 13:11:33;;;;;;;4.45;4.20;;;;;;;12.44;29.73;102236.31;4398935;32;20694;-69
2021/04/16 13:13:59;;;;;;;3.78;3.67;;;;;;;12.06;32.36;102239.34;4410532;32;20117;-67
2021/04/16 13:16:25;;;;;;;3.80;3.70;;;;;;;11.91;32.00;102240.72;4396393;32;20364;-69
2021/04/16 13:18:52;;;;;;;3.72;3.62;;;;;;;11.85;33.04;102233.00;4398679;32;20097;-69
2021/04/16 13:21:33;;;;;;;3.90;3.80;;;;;;;11.98;32.74;102234.34;4398300;32;20134;-68
2021/04/16 13:23:58;;;;;;;4.03;3.83;;;;;;;11.93;31.82;102219.66;4443664;32;20091;-67
2021/04/16 13:26:25;;;;;;;3.95;3.78;;;;;;;12.05;31.88;102231.53;4405594;32;20065;-67
2021/04/16 13:28:50;;;;;;;4.18;3.97;;;;;;;12.09;33.27;102233.16;4397549;32;20226;-67
2021/04/16 13:31:16;;;;;;;3.80;3.70;;;;;;;12.32;29.15;102234.97;4417993;32;20095;-67
2021/04/16 13:33:42;;;;;;;3.80;3.70;;;;;;;12.14;30.50;102228.56;4413620;32;20096;-67
2021/04/16 13:36:08;;;;;;;4.70;4.40;;;;;;;12.36;28.82;102226.91;4415001;32;20077;-67
2021/04/16 13:38:33;;;;;;;3.80;3.70;;;;;;;12.27;31.99;102224.59;4419629;32;20060;-67
2021/04/16 13:41:00;;;;;;;3.80;3.70;;;;;;;11.96;29.36;102173.00;4430688;32;20072;-67
2021/04/16 13:43:26;;;;;;;3.75;3.65;;;;;;;12.21;30.16;102227.47;4415237;32;20549;-68
2021/04/16 13:45:52;;;;;;;4.00;3.80;;;;;;;12.67;31.97;102199.47;4421457;32;20072;-68
2021/04/16 13:48:17;;;;;;;4.00;3.80;;;;;;;12.53;31.00;102217.56;4427871;32;20068;-68
2021/04/16 13:50:43;;;;;;;3.67;3.58;;;;;;;12.76;30.43;102207.03;4416621;32;20139;-69
2021/04/16 13:53:09;;;;;;;4.12;3.92;;;;;;;12.73;29.88;102209.78;4414760;32;20086;-67
2021/04/16 13:55:34;;;;;;;3.72;3.62;;;;;;;12.54;29.46;102208.75;4418180;32;20079;-69